Terminal Aerodrome Forecast
Issued by NWS

Home | Current Version | Previous Version | Text Only | Print | Product List | Glossary On
Versions: 1 2 3 4 5 6 7 8 9 10 11 12 13 14 15 16 17 18 19 20 21 22 23 24
000
FTUS44 KOUN 241737
TAFWWR
TAF
KWWR 241737Z 2418/2518 19013KT P6SM VCSH BKN050
      TEMPO 2418/2421 4SM -TSRA BKN030CB
     FM242100 16012KT P6SM VCTS BKN040CB
      TEMPO 2421/2501 3SM TSRA OVC035CB
     FM251000 35012KT 5SM -RA OVC020
      TEMPO 2511/2515 2SM -TSRA BR OVC012CB=

USA.gov is the U.S. government's official web portal to all federal, state and local government web resources and services.